TUPJ/RAD METAR and TAF weather

Enter ICAO airport designator
Station Type Date Time Source
TUPJ METAR 2019/09/21 01:00 UTC NOAA

TUPJ 210100Z 00000KT 10SM FEW018 28/25 A2993 RMK Q1013 VIS30KM


Station Type Date Time Source
TUPJ Decoded METAR 2019/09/21 01:00 UTC NOAA

Beef Island, Tortola, British Virgin Islands (TUPJ) 18-27N 064-32W
Sep 20, 2019 - 09:00 PM EDT / 2019.09.21 0100 UTC
Wind: Calm:0
Visibility: 10 mile(s):0
Sky conditions: mostly clear
Temperature: 82 F (28 C)
Dew Point: 77 F (25 C)
Relative Humidity: 83%
Pressure (altimeter): 29.93 in. Hg (1013 hPa)
ob: TUPJ 210100Z 00000KT 10SM FEW018 28/25 A2993 RMK Q1013 VIS30KM
cycle: 1

Station Type Date Time Source
TUPJ TAF 2019/09/21 00:00 UTC NOAA

TAF
AMD TUPJ 210352Z 2100/2124 CNL

Example: see airport list